Flight Track Log - Related Links

Times and Time Zones

All times are in EDT time to prevent confusion due to time zone crossing. See the GLA63P flight status page for this flight to view local times or setup timezone preferences in your user account.

Time Position Orientation Groundspeed Altitude Reporting Facility
EDT Latitude Longitude Course Direction KTS MPH feet Rate Location/Type
Thu 09:42:00 AM 38.7011 -109.2730 102° East  Level FlightAware
Thu 09:43:00 AM 38.6853 -109.1784 102° East  Level FlightAware
Thu 09:44:00 AM 38.6799 -109.0826 104° East  Level FlightAware
Thu 09:44:58 AM 38.7686 -109.7986 12° North 175 201 9,200  Level Denver Center
Thu 09:45:00 AM 38.6648 -108.9881 95° East  Level FlightAware
Thu 09:45:59 AM 38.7556 -109.7403 106° East 173 199 11,100  Level Denver Center
Thu 09:46:00 AM 38.6584 -108.8918 95° East  Level FlightAware
Thu 09:47:00 AM 38.6520 -108.7955 95° East  Level FlightAware
Thu 09:47:00 AM 38.7564 -109.6614 89° East 192 221 13,100  Level Denver Center
Thu 09:48:00 AM 38.6417 -108.6998 99° East  Level FlightAware
Thu 09:48:01 AM 38.7525 -109.5903 94° East 201 231 14,900  Level Denver Center
Thu 09:49:00 AM 38.6333 -108.6041 90° East  Level FlightAware
Thu 09:49:02 AM 38.7442 -109.5042 97° East 218 251 16,600  Level Denver Center
Thu 09:50:03 AM 38.7375 -109.4222 96° East 231 266 18,000 1,377 Climbing Denver Center
Thu 09:51:04 AM 38.7308 -109.3397 96° East 234 269 19,400 1,317 Climbing Denver Center
Thu 09:52:06 AM 38.7244 -109.2531 95° East 245 282 20,700 1,317 Climbing Denver Center
Thu 09:53:07 AM 38.7192 -109.1589 94° East 248 285 22,100 1,230 Climbing Denver Center
Thu 09:54:08 AM 38.7122 -109.0703 96° East 249 287 23,200 1,033 Climbing Denver Center
Thu 09:55:09 AM 38.7003 -108.9783 99° East 255 293 24,200 836 Climbing Denver Center
Thu 09:56:10 AM 38.6872 -108.8900 101° East 262 302 24,900 390 Climbing Denver Center
Thu 09:57:12 AM 38.6719 -108.8006 102° East 269 310 25,000 98 Climbing Denver Center
Thu 09:58:13 AM 38.6508 -108.6869 103° East 292 336 25,100  Climbing Denver Center
Thu 09:59:14 AM 38.6367 -108.5842 100° East 305 351 25,000 -49 Descending Denver Center
Thu 10:00:15 AM 38.6194 -108.4639 100° East 308 354 25,000 49 Level Denver Center
Thu 10:01:17 AM 38.6114 -108.3603 96° East 307 353 25,100 49 Climbing Denver Center
Thu 10:02:18 AM 38.6086 -108.2519 92° East 315 362 25,100 -49 Level Denver Center
Thu 10:03:19 AM 38.6089 -108.1256 90° East 318 366 25,000  Descending Denver Center
Thu 10:04:20 AM 38.6050 -108.0342 93° East 321 369 25,100 49 Climbing Denver Center
Thu 10:05:22 AM 38.5978 -107.8897 94° East 319 367 25,100  Level Denver Center
Thu 10:06:23 AM 38.5844 -107.7831 99° East 319 367 25,100  Level Denver Center
Thu 10:07:25 AM 38.5667 -107.6758 102° East 321 369 25,100 -49 Level Denver Center
Thu 10:08:26 AM 38.5461 -107.5531 102° East 318 366 25,000 -49 Descending Denver Center
Thu 10:09:27 AM 38.5292 -107.4478 102° East 317 365 25,000 49 Level Denver Center
Thu 10:10:29 AM 38.5069 -107.3278 103° East 313 360 25,100  Climbing Denver Center
Thu 10:11:30 AM 38.4883 -107.2225 103° East 316 364 25,000  Descending Denver Center
Thu 10:12:32 AM 38.4675 -107.1136 104° East 313 360 25,100 49 Climbing Denver Center
Thu 10:13:33 AM 38.4519 -107.0017 100° East 323 372 25,100  Level Denver Center
Thu 10:14:35 AM 38.4881 -106.8956 66° East 331 381 25,100 -49 Level Denver Center
Thu 10:15:36 AM 38.5328 -106.7958 60° Northeast 327 376 25,000  Descending Denver Center
Thu 10:16:38 AM 38.5706 -106.6903 65° Northeast 327 376 25,100  Climbing Denver Center
Thu 10:17:39 AM 38.6064 -106.5836 67° East 327 376 25,000 -49 Descending Denver Center
Thu 10:18:41 AM 38.6367 -106.4472 74° East 332 382 25,000  Level Denver Center
Thu 10:19:55 AM 38.6614 -106.3353 74° East 328 377 25,000  Level Denver Center
Thu 10:20:57 AM 38.7039 -106.2069 67° East 326 375 25,000 49 Level Denver Center
Thu 10:21:58 AM 38.7547 -106.1067 57° Northeast 323 372 25,100 98 Climbing Denver Center
Thu 10:22:59 AM 38.7981 -106.0369 51° Northeast 316 364 25,200 -339 Climbing Denver Center
Thu 10:24:02 AM 38.8675 -105.9203 53° Northeast 320 368 24,400 -794 Descending Denver Center
Thu 10:25:15 AM 38.9139 -105.8375 54° Northeast 314 361 23,400 -1,111 Descending Denver Center
Thu 10:26:17 AM 38.9814 -105.7192 54° Northeast 312 359 21,900 -1,452 Descending Denver Center
Thu 10:27:19 AM 39.0289 -105.6358 54° Northeast 305 351 20,400 -1,694 Descending Denver Center
Thu 10:28:21 AM 39.0897 -105.5419 50° Northeast 304 350 18,400 -1,597 Descending Denver Center
Thu 10:29:23 AM 39.1458 -105.4575 49° Northeast 314 361 17,100 -1,113 Descending Denver Center
Thu 10:30:25 AM 39.2128 -105.3664 47° Northeast 319 367 16,100 -435 Descending Denver Center
Thu 10:31:27 AM 39.2667 -105.2808 51° Northeast 311 358 16,200 -244 Climbing Denver Center
Thu 10:32:28 AM 39.3100 -105.1728 63° Northeast 324 373 15,600 -711 Descending Denver Center
Thu 10:33:42 AM 39.3333 -105.0611 75° East 325 374 14,600 -1,051 Descending Denver Center
Thu 10:34:45 AM 39.3661 -104.9275 72° East 316 364 13,200 -1,152 Descending Denver Center
Thu 10:35:47 AM 39.4200 -104.8444 50° Northeast 281 323 12,200 -823 Descending Denver Center
Thu 10:36:49 AM 39.4814 -104.7950 32° Northeast 263 303 11,500 -780 Descending Denver Center
Thu 10:37:50 AM 39.5419 -104.7483 31° Northeast 255 293 10,600 -683 Descending Denver Center
Thu 10:38:52 AM 39.6067 -104.7019 29° Northeast 247 284 10,100 -677 Descending Denver Center
Thu 10:39:54 AM 39.6600 -104.6617 30° Northeast 224 258 9,200 -1,113 Descending Denver Center
Thu 10:40:56 AM 39.7169 -104.6625 359° North 187 215 7,800 -1,065 Descending Denver Center
Thu 10:41:58 AM 39.7650 -104.6614 North 175 201 7,000 -919 Descending Denver Center
Thu 10:43:00 AM 39.8128 -104.6608 North 163 188 5,900 -726 Descending Denver Center
Thu 10:44:02 AM 39.8456 -104.6608 360° North 119 137 5,500 -387 Descending Denver Center
Thu 10:46:00 AM 39.8500 -104.6667 346° North  Level FlightAware
Thu 10:53:00 AM 39.8617 -104.6732 346° North  Level Estimated

Login

Don't have an account? Register now (free) for customized features, flight alerts, and more!